createdAt,value
2022-08-02T00:01:16.445Z,16.00
2022-08-02T00:03:20.135Z,15.90
2022-08-02T00:05:23.871Z,15.80
2022-08-02T00:07:27.500Z,15.80
2022-08-02T00:09:31.099Z,15.90
2022-08-02T00:11:34.808Z,15.90
2022-08-02T00:13:38.515Z,15.80
2022-08-02T00:15:41.984Z,15.90
2022-08-02T00:17:46.429Z,15.90
2022-08-02T00:19:50.941Z,15.80
2022-08-02T00:21:54.516Z,15.80
2022-08-02T00:24:28.169Z,15.70
2022-08-02T00:26:03.767Z,15.70
2022-08-02T00:28:07.354Z,15.50
2022-08-02T00:30:12.504Z,15.40
2022-08-02T00:32:16.086Z,15.30
2022-08-02T00:34:30.379Z,15.20
2022-08-02T00:36:25.106Z,15.00
2022-08-02T00:38:28.783Z,15.00
2022-08-02T00:40:32.248Z,14.90
2022-08-02T00:42:35.874Z,14.90
2022-08-02T00:44:39.473Z,14.90
2022-08-02T00:46:43.202Z,14.90
2022-08-02T00:48:46.840Z,14.90
2022-08-02T00:50:50.994Z,14.90
2022-08-02T00:52:54.584Z,15.00
2022-08-02T00:54:58.192Z,14.90
2022-08-02T00:57:01.748Z,14.90
2022-08-02T00:59:05.383Z,14.90
2022-08-02T01:01:09.042Z,14.90
2022-08-02T01:03:12.622Z,14.90
2022-08-02T01:05:16.627Z,14.90
2022-08-02T01:07:20.382Z,14.90
2022-08-02T01:09:23.949Z,14.80
2022-08-02T01:11:28.054Z,14.80
2022-08-02T01:13:31.711Z,14.80
2022-08-02T01:17:56.944Z,14.90
2022-08-02T01:20:05.557Z,14.90
2022-08-02T01:22:59.453Z,15.00
2022-08-02T01:24:56.460Z,14.90
2022-08-02T01:27:04.874Z,14.90
2022-08-02T01:29:11.515Z,14.90
2022-08-02T01:31:19.384Z,14.90
2022-08-02T01:33:25.287Z,14.90
2022-08-02T01:35:47.355Z,14.90
2022-08-02T01:37:42.975Z,14.90
2022-08-02T01:39:49.452Z,14.90
2022-08-02T01:41:58.867Z,14.80
2022-08-02T01:44:01.577Z,14.90
2022-08-02T01:46:06.976Z,15.00
2022-08-02T01:48:12.421Z,14.90
2022-08-02T01:50:19.656Z,14.90
2022-08-02T01:52:26.413Z,14.90
2022-08-02T01:54:32.793Z,14.90
2022-08-02T01:56:37.473Z,14.90
2022-08-02T01:58:43.488Z,14.90
2022-08-02T02:00:48.352Z,14.80
2022-08-02T02:05:13.883Z,14.80
2022-08-02T02:07:18.703Z,14.70
2022-08-02T02:09:25.095Z,14.70
2022-08-02T02:12:05.157Z,14.70
2022-08-02T02:13:36.275Z,14.70
2022-08-02T02:15:43.394Z,14.60
2022-08-02T02:17:52.738Z,14.60
2022-08-02T02:19:57.340Z,14.50
2022-08-02T02:22:01.586Z,14.50
2022-08-02T02:24:11.881Z,14.40
2022-08-02T02:26:14.917Z,14.40
2022-08-02T02:28:24.053Z,14.30
2022-08-02T02:30:29.764Z,14.40
2022-08-02T02:32:35.012Z,14.30
2022-08-02T02:34:41.844Z,14.40
2022-08-02T02:36:50.341Z,14.30
2022-08-02T02:38:55.701Z,14.40
2022-08-02T02:41:01.721Z,14.40
2022-08-02T02:43:06.308Z,14.50
2022-08-02T02:45:12.327Z,14.40
2022-08-02T02:47:18.161Z,14.50
2022-08-02T02:49:23.120Z,14.50
2022-08-02T02:51:27.408Z,14.50
2022-08-02T02:54:31.987Z,14.50
2022-08-02T02:55:38.293Z,14.50
2022-08-02T02:57:42.187Z,14.60
2022-08-02T02:59:49.678Z,14.50
2022-08-02T03:01:55.401Z,14.50
2022-08-02T03:04:01.276Z,14.50
2022-08-02T03:06:15.296Z,14.50
2022-08-02T03:08:10.677Z,14.40
2022-08-02T03:10:14.159Z,14.40
2022-08-02T03:12:20.069Z,14.30
2022-08-02T03:14:23.462Z,14.30
2022-08-02T03:16:27.856Z,14.30
2022-08-02T03:18:32.267Z,14.20
2022-08-02T03:20:36.025Z,14.20
2022-08-02T03:22:39.552Z,14.20
2022-08-02T03:24:43.162Z,14.20
2022-08-02T03:26:46.771Z,14.20
2022-08-02T03:28:50.312Z,14.10
2022-08-02T03:30:53.918Z,14.10
2022-08-02T03:32:57.537Z,14.00
2022-08-02T03:35:01.730Z,13.90
2022-08-02T03:37:05.603Z,13.90
2022-08-02T03:39:09.484Z,13.80
2022-08-02T03:41:16.492Z,13.70
2022-08-02T03:43:20.583Z,13.70
2022-08-02T03:45:25.685Z,13.70
2022-08-02T03:47:29.499Z,13.60
2022-08-02T03:49:33.140Z,13.60
2022-08-02T03:51:36.843Z,13.60
2022-08-02T03:53:41.026Z,13.60
2022-08-02T03:55:45.193Z,13.70
2022-08-02T03:57:49.207Z,13.70
2022-08-02T03:59:52.812Z,13.70
2022-08-02T04:01:56.388Z,13.70
2022-08-02T04:03:59.992Z,13.70
2022-08-02T04:06:04.897Z,13.70
2022-08-02T04:08:35.821Z,13.70
2022-08-02T04:10:14.207Z,13.70
2022-08-02T04:12:17.792Z,13.70
2022-08-02T04:14:21.645Z,13.70
2022-08-02T04:18:48.926Z,13.70
2022-08-02T04:20:53.349Z,13.70
2022-08-02T04:23:00.377Z,13.60
2022-08-02T04:25:06.892Z,13.60
2022-08-02T04:27:50.869Z,13.60
2022-08-02T04:29:19.472Z,13.60
2022-08-02T04:31:23.448Z,13.60
2022-08-02T04:33:27.227Z,13.70
2022-08-02T04:35:30.936Z,13.70
2022-08-02T04:37:35.019Z,13.70
2022-08-02T04:39:38.584Z,13.70
2022-08-02T04:41:44.671Z,13.80
2022-08-02T04:43:48.269Z,13.80
2022-08-02T04:45:53.960Z,13.80
2022-08-02T04:48:05.830Z,13.90
2022-08-02T04:50:03.056Z,14.00
2022-08-02T04:52:06.825Z,14.00
2022-08-02T04:54:11.455Z,14.00
2022-08-02T04:56:15.042Z,14.10
2022-08-02T04:58:39.410Z,14.20
2022-08-02T05:00:24.891Z,14.30
2022-08-02T05:02:28.432Z,14.30
2022-08-02T05:04:32.002Z,14.40
2022-08-02T05:06:35.614Z,14.40
2022-08-02T05:08:39.175Z,14.60
2022-08-02T05:10:42.775Z,14.70
2022-08-02T05:12:46.227Z,14.70
2022-08-02T05:14:50.088Z,14.80
2022-08-02T05:16:58.867Z,14.90
2022-08-02T05:19:02.937Z,15.00
2022-08-02T05:21:06.741Z,15.00
2022-08-02T05:23:10.331Z,15.10
2022-08-02T05:25:14.136Z,15.10
2022-08-02T05:27:21.894Z,15.20
2022-08-02T05:29:23.085Z,15.20
2022-08-02T05:31:26.671Z,15.20
2022-08-02T05:33:30.364Z,15.30
2022-08-02T05:35:34.587Z,15.30
2022-08-02T05:37:38.204Z,15.40
2022-08-02T05:39:55.862Z,15.50
2022-08-02T05:41:48.308Z,15.60
2022-08-02T05:43:51.928Z,15.70
2022-08-02T05:45:55.508Z,15.70
2022-08-02T05:48:00.304Z,15.70
2022-08-02T05:50:07.764Z,15.80
2022-08-02T05:52:16.054Z,15.90
2022-08-02T05:54:22.228Z,15.90
2022-08-02T05:56:29.568Z,16.10
2022-08-02T06:00:55.768Z,16.10
2022-08-02T06:03:07.734Z,16.10
2022-08-02T06:05:12.645Z,16.20
2022-08-02T06:07:18.274Z,16.20
2022-08-02T06:09:26.964Z,16.40
2022-08-02T06:11:34.904Z,16.50
2022-08-02T06:13:38.777Z,16.60
2022-08-02T06:15:53.451Z,16.70
2022-08-02T06:17:48.534Z,16.80
2022-08-02T06:19:57.049Z,16.90
2022-08-02T06:22:33.475Z,17.00
2022-08-02T06:24:10.537Z,17.10
2022-08-02T06:26:15.020Z,17.20
2022-08-02T06:28:19.980Z,17.40
2022-08-02T06:30:23.674Z,17.50
2022-08-02T06:32:27.556Z,17.50
2022-08-02T06:34:31.190Z,17.60
2022-08-02T06:36:39.483Z,17.70
2022-08-02T06:38:51.203Z,17.70
2022-08-02T06:40:55.796Z,17.80
2022-08-02T06:43:08.695Z,17.90
2022-08-02T06:45:14.697Z,18.00
2022-08-02T06:47:19.772Z,18.10
2022-08-02T06:49:23.431Z,18.30
2022-08-02T06:51:27.475Z,18.50
2022-08-02T06:53:31.353Z,18.60
2022-08-02T06:55:42.834Z,18.70
2022-08-02T06:57:40.752Z,18.80
2022-08-02T06:59:44.358Z,18.80
2022-08-02T07:01:47.860Z,18.80
2022-08-02T07:03:51.417Z,19.00
2022-08-02T07:05:54.991Z,19.00
2022-08-02T07:07:58.620Z,19.00
2022-08-02T07:10:02.148Z,19.00
2022-08-02T07:12:06.688Z,19.20
2022-08-02T07:14:10.264Z,19.20
2022-08-02T07:16:13.860Z,19.20
2022-08-02T07:18:17.314Z,19.40
2022-08-02T07:20:20.823Z,19.40
2022-08-02T07:22:26.284Z,19.50
2022-08-02T07:24:29.877Z,19.50
2022-08-02T07:26:41.331Z,19.60
2022-08-02T07:28:38.888Z,19.70
2022-08-02T07:30:42.899Z,19.70
2022-08-02T07:32:46.345Z,19.80
2022-08-02T07:34:52.570Z,19.90
2022-08-02T07:36:56.565Z,20.10
2022-08-02T07:39:00.222Z,20.10
2022-08-02T07:41:03.767Z,20.30
2022-08-02T07:43:07.672Z,20.30
2022-08-02T07:45:12.441Z,20.40
2022-08-02T07:47:15.989Z,20.50
2022-08-02T07:49:19.620Z,20.60
2022-08-02T07:51:23.344Z,20.60
2022-08-02T07:53:30.568Z,20.70
2022-08-02T07:55:40.383Z,20.70
2022-08-02T07:57:42.532Z,20.80
2022-08-02T07:59:46.000Z,20.90
2022-08-02T08:01:49.903Z,21.00
2022-08-02T08:03:53.538Z,21.20
2022-08-02T08:05:57.323Z,21.30
2022-08-02T08:08:01.386Z,21.40
2022-08-02T08:10:06.487Z,21.60
2022-08-02T08:12:11.291Z,21.90
2022-08-02T08:14:16.982Z,22.00
2022-08-02T08:16:20.832Z,22.10
2022-08-02T08:18:24.455Z,22.20
2022-08-02T08:20:28.228Z,22.40
2022-08-02T08:22:31.802Z,22.60
2022-08-02T08:24:35.288Z,22.70
2022-08-02T08:26:39.651Z,22.90
2022-08-02T08:28:44.044Z,22.90
2022-08-02T08:30:47.580Z,23.00
2022-08-02T08:32:51.273Z,23.20
2022-08-02T08:34:54.838Z,23.40
2022-08-02T08:36:58.428Z,23.50
2022-08-02T08:39:02.505Z,23.70
2022-08-02T08:41:06.108Z,23.80
2022-08-02T08:43:13.667Z,23.90
2022-08-02T08:45:17.846Z,24.20
2022-08-02T08:47:34.008Z,24.30
2022-08-02T08:49:39.593Z,24.60
2022-08-02T08:51:46.613Z,24.70
2022-08-02T08:53:52.777Z,24.80
2022-08-02T08:58:17.092Z,24.50
2022-08-02T09:00:21.015Z,25.10
2022-08-02T09:02:28.088Z,25.10
2022-08-02T09:04:30.895Z,25.00
2022-08-02T09:06:34.461Z,25.30
2022-08-02T09:08:38.039Z,25.50
2022-08-02T09:10:43.515Z,25.70
2022-08-02T09:12:51.461Z,25.70
2022-08-02T09:14:55.012Z,25.90
2022-08-02T09:17:08.119Z,26.00
2022-08-02T09:19:22.033Z,26.10
2022-08-02T09:21:34.868Z,26.30
2022-08-02T09:23:39.892Z,26.30
2022-08-02T09:25:58.995Z,26.40
2022-08-02T09:28:00.378Z,26.50
2022-08-02T09:30:12.048Z,26.70
2022-08-02T09:32:12.887Z,26.80
2022-08-02T09:34:19.874Z,26.80
2022-08-02T09:36:23.738Z,26.40
2022-08-02T09:38:27.585Z,26.60
2022-08-02T09:40:36.607Z,26.60
2022-08-02T09:42:47.535Z,26.60
2022-08-02T09:44:55.048Z,26.70
2022-08-02T09:46:58.536Z,26.70
2022-08-02T09:51:22.909Z,26.50
2022-08-02T09:53:26.622Z,26.30
2022-08-02T09:55:30.449Z,26.30
2022-08-02T09:57:35.995Z,26.30
2022-08-02T09:59:41.449Z,26.50
2022-08-02T10:04:03.217Z,26.80
2022-08-02T10:06:08.219Z,26.80
2022-08-02T10:08:12.085Z,26.40
2022-08-02T10:10:15.716Z,26.20
2022-08-02T10:12:20.424Z,25.90
2022-08-02T10:16:40.472Z,26.60
2022-08-02T10:18:44.354Z,26.50
2022-08-02T10:20:49.856Z,26.70
2022-08-02T10:22:56.456Z,26.90
2022-08-02T10:25:01.957Z,26.90
2022-08-02T10:27:08.993Z,27.00
2022-08-02T10:29:16.733Z,27.00
2022-08-02T10:31:24.054Z,27.20
2022-08-02T10:33:29.334Z,27.20
2022-08-02T10:35:36.475Z,27.20
2022-08-02T10:37:41.427Z,27.30
2022-08-02T10:41:59.574Z,27.60
2022-08-02T10:44:03.208Z,27.60
2022-08-02T10:49:38.061Z,27.30
2022-08-02T10:51:18.990Z,27.10
2022-08-02T10:53:29.396Z,26.80
2022-08-02T10:55:45.525Z,26.80
2022-08-02T10:57:53.457Z,26.70
2022-08-02T10:59:58.641Z,26.50
2022-08-02T11:02:04.666Z,26.40
2022-08-02T11:04:10.609Z,26.30
2022-08-02T11:06:25.335Z,26.40
2022-08-02T11:08:21.703Z,26.30
2022-08-02T11:10:37.083Z,26.20
2022-08-02T11:12:59.519Z,26.30
2022-08-02T11:15:07.638Z,26.30
2022-08-02T11:17:15.367Z,26.30
2022-08-02T11:19:19.809Z,26.40
2022-08-02T11:21:24.472Z,26.60
2022-08-02T11:23:44.379Z,27.00
2022-08-02T11:26:03.371Z,27.40
2022-08-02T11:27:50.037Z,27.80
2022-08-02T11:29:54.900Z,28.00
2022-08-02T11:31:58.885Z,27.90
2022-08-02T11:34:07.829Z,27.80
2022-08-02T11:36:09.806Z,28.00
2022-08-02T11:38:20.771Z,28.00
2022-08-02T11:40:24.395Z,28.20
2022-08-02T11:42:33.531Z,28.10
2022-08-02T11:44:44.143Z,28.10
2022-08-02T11:46:55.519Z,28.20
2022-08-02T11:49:01.185Z,28.20
2022-08-02T11:53:21.144Z,28.40
2022-08-02T11:55:28.700Z,28.60
2022-08-02T11:58:03.671Z,28.30
2022-08-02T11:59:39.039Z,28.50
2022-08-02T12:01:45.957Z,28.40
2022-08-02T12:03:50.250Z,28.40
2022-08-02T12:06:05.006Z,28.20
2022-08-02T12:07:59.794Z,28.00
2022-08-02T12:10:09.122Z,27.90
2022-08-02T12:12:12.908Z,27.60
2022-08-02T12:14:17.090Z,27.60
2022-08-02T12:16:38.788Z,27.60
2022-08-02T12:19:07.157Z,27.60
2022-08-02T12:21:23.700Z,27.80
2022-08-02T12:23:27.973Z,27.90
2022-08-02T12:25:34.383Z,28.00
2022-08-02T12:27:40.473Z,27.90
2022-08-02T12:29:58.686Z,27.90
2022-08-02T12:31:55.947Z,27.80
2022-08-02T12:33:55.547Z,27.80
2022-08-02T12:35:59.136Z,27.90
2022-08-02T12:38:10.002Z,27.80
2022-08-02T12:40:25.360Z,28.00
2022-08-02T12:42:27.448Z,28.20
2022-08-02T12:44:31.004Z,28.30
2022-08-02T12:46:35.672Z,28.30
2022-08-02T12:48:52.165Z,28.40
2022-08-02T12:53:07.445Z,28.10
2022-08-02T12:55:20.050Z,28.20
2022-08-02T12:57:24.560Z,28.00
2022-08-02T12:59:39.501Z,28.10
2022-08-02T13:01:45.052Z,28.20
2022-08-02T13:04:09.409Z,28.40
2022-08-02T13:05:57.524Z,28.60
2022-08-02T13:08:00.230Z,28.50
2022-08-02T13:10:04.516Z,28.40
2022-08-02T13:12:09.115Z,28.40
2022-08-02T13:14:14.193Z,28.20
2022-08-02T13:16:17.848Z,28.40
2022-08-02T13:18:23.405Z,28.40
2022-08-02T13:20:27.405Z,28.50
2022-08-02T13:22:30.946Z,28.40
2022-08-02T13:26:52.808Z,28.40
2022-08-02T13:28:57.519Z,28.30
2022-08-02T13:31:20.586Z,28.30
2022-08-02T13:33:08.359Z,28.30
2022-08-02T13:35:18.275Z,28.30
2022-08-02T13:37:19.203Z,28.40
2022-08-02T13:39:24.804Z,28.40
2022-08-02T13:41:28.684Z,28.50
2022-08-02T13:43:52.793Z,28.60
2022-08-02T13:45:38.903Z,28.50
2022-08-02T13:48:03.345Z,28.50
2022-08-02T13:52:06.482Z,28.50
2022-08-02T13:54:10.194Z,28.60
2022-08-02T13:56:15.296Z,28.80
2022-08-02T13:58:19.923Z,28.90
2022-08-02T14:00:35.366Z,29.10
2022-08-02T14:04:45.290Z,28.90
2022-08-02T14:06:49.260Z,28.80
2022-08-02T14:08:54.194Z,28.80
2022-08-02T14:13:16.807Z,28.90
2022-08-02T14:15:22.924Z,28.80
2022-08-02T14:17:27.059Z,28.90
2022-08-02T14:19:30.704Z,29.00
2022-08-02T14:21:46.982Z,29.20
2022-08-02T14:23:49.289Z,29.30
2022-08-02T14:25:46.396Z,29.30
2022-08-02T14:27:49.904Z,29.40
2022-08-02T14:29:53.934Z,29.40
2022-08-02T14:34:12.997Z,29.50
2022-08-02T14:36:27.647Z,29.50
2022-08-02T14:38:22.155Z,29.40
2022-08-02T14:40:31.459Z,29.60
2022-08-02T14:42:32.061Z,29.30
2022-08-02T14:44:35.700Z,29.30
2022-08-02T14:46:40.813Z,29.20
2022-08-02T14:48:44.813Z,29.00
2022-08-02T14:50:48.461Z,28.90
2022-08-02T14:52:52.046Z,29.10
2022-08-02T14:54:56.908Z,29.20
2022-08-02T14:59:18.614Z,29.20
2022-08-02T15:01:25.925Z,29.20
2022-08-02T15:03:29.621Z,29.30
2022-08-02T15:05:33.138Z,29.30
2022-08-02T15:07:41.896Z,29.40
2022-08-02T15:09:42.061Z,29.30
2022-08-02T15:14:03.655Z,29.50
2022-08-02T15:16:08.649Z,29.60
2022-08-02T15:18:13.764Z,29.60
2022-08-02T15:20:25.308Z,29.70
2022-08-02T15:22:22.747Z,29.60
2022-08-02T15:24:26.924Z,29.50
2022-08-02T15:26:30.533Z,29.50
2022-08-02T15:28:35.008Z,29.80
2022-08-02T15:30:38.833Z,29.80
2022-08-02T15:32:52.878Z,29.90
2022-08-02T15:34:48.391Z,29.70
2022-08-02T15:36:52.229Z,29.40
2022-08-02T15:38:56.903Z,29.50
2022-08-02T15:41:03.776Z,29.60
2022-08-02T15:43:07.470Z,29.70
2022-08-02T15:45:13.286Z,29.60
2022-08-02T15:47:17.886Z,29.60
2022-08-02T15:49:23.037Z,29.70
2022-08-02T15:51:26.549Z,29.80
2022-08-02T15:53:30.234Z,29.60
2022-08-02T15:55:39.974Z,29.60
2022-08-02T15:57:39.398Z,29.70
2022-08-02T15:59:42.952Z,29.70
2022-08-02T16:01:48.179Z,29.80
2022-08-02T16:03:51.932Z,29.80
2022-08-02T16:05:55.551Z,29.90
2022-08-02T16:07:59.223Z,29.90
2022-08-02T16:10:03.812Z,29.80
2022-08-02T16:12:08.068Z,29.90
2022-08-02T16:14:11.728Z,30.10
2022-08-02T16:16:15.176Z,30.10
2022-08-02T16:18:19.133Z,30.20
2022-08-02T16:20:23.144Z,30.10
2022-08-02T16:22:26.882Z,30.10
2022-08-02T16:24:31.095Z,30.00
2022-08-02T16:26:35.189Z,30.00
2022-08-02T16:28:39.051Z,30.00
2022-08-02T16:30:54.185Z,30.10
2022-08-02T16:35:07.902Z,29.80
2022-08-02T16:37:10.359Z,29.80
2022-08-02T16:39:14.086Z,29.70
2022-08-02T16:41:18.015Z,29.70
2022-08-02T16:43:21.949Z,29.60
2022-08-02T16:45:25.793Z,29.60
2022-08-02T16:47:43.499Z,29.70
2022-08-02T16:50:04.900Z,29.90
2022-08-02T16:51:40.503Z,29.90
2022-08-02T16:56:01.090Z,30.00
2022-08-02T16:58:04.780Z,29.90
2022-08-02T17:00:12.160Z,29.80
2022-08-02T17:02:18.353Z,29.70
2022-08-02T17:04:21.037Z,29.80
2022-08-02T17:08:31.891Z,29.80
2022-08-02T17:12:52.971Z,29.70
2022-08-02T17:14:56.589Z,29.80
2022-08-02T17:17:01.867Z,29.80
2022-08-02T17:19:05.659Z,29.80
2022-08-02T17:21:10.849Z,29.70
2022-08-02T17:27:55.613Z,29.80
2022-08-02T17:29:58.180Z,29.60
2022-08-02T17:32:05.353Z,29.70
2022-08-02T17:34:06.953Z,29.70
2022-08-02T17:36:10.640Z,29.60
2022-08-02T17:38:17.856Z,29.50
2022-08-02T17:40:21.736Z,29.70
2022-08-02T17:42:28.369Z,29.50
2022-08-02T17:44:37.287Z,29.40
2022-08-02T17:46:37.629Z,29.60
2022-08-02T17:50:57.032Z,29.70
2022-08-02T17:53:01.415Z,29.90
2022-08-02T17:55:07.976Z,30.00
2022-08-02T17:57:11.889Z,30.10
2022-08-02T17:59:22.565Z,30.10
2022-08-02T18:01:29.976Z,30.00
2022-08-02T18:03:35.940Z,29.90
2022-08-02T18:05:53.137Z,29.80
2022-08-02T18:07:53.132Z,29.70
2022-08-02T18:09:53.499Z,29.60
2022-08-02T18:11:58.364Z,29.60
2022-08-02T18:16:21.167Z,29.20
2022-08-02T18:18:29.805Z,29.20
2022-08-02T18:20:28.435Z,29.20
2022-08-02T18:22:32.148Z,29.00
2022-08-02T18:24:36.862Z,29.00
2022-08-02T18:26:43.581Z,29.00
2022-08-02T18:28:47.189Z,29.00
2022-08-02T18:30:50.945Z,28.90
2022-08-02T18:33:57.502Z,28.90
2022-08-02T18:35:01.484Z,28.90
2022-08-02T18:37:06.503Z,28.80
2022-08-02T18:39:10.180Z,28.70
2022-08-02T18:41:13.971Z,28.70
2022-08-02T18:43:17.560Z,28.60
2022-08-02T18:45:21.716Z,28.50
2022-08-02T18:47:25.324Z,28.40
2022-08-02T18:51:36.907Z,28.10
2022-08-02T18:53:42.135Z,28.00
2022-08-02T18:55:59.879Z,27.90
2022-08-02T18:57:51.514Z,27.60
2022-08-02T18:59:57.025Z,27.50
2022-08-02T19:02:00.779Z,27.50
2022-08-02T19:04:05.377Z,27.20
2022-08-02T19:06:10.718Z,27.30
2022-08-02T19:10:36.262Z,27.10
2022-08-02T19:14:57.965Z,26.90
2022-08-02T19:17:53.089Z,26.90
2022-08-02T19:19:06.948Z,26.90
2022-08-02T19:21:10.453Z,26.90
2022-08-02T19:25:35.431Z,26.70
2022-08-02T19:27:40.703Z,26.50
2022-08-02T19:32:02.373Z,26.30
2022-08-02T19:34:07.987Z,26.20
2022-08-02T19:36:12.104Z,26.10
2022-08-02T19:40:32.691Z,26.00
2022-08-02T19:44:52.582Z,25.80
2022-08-02T19:46:58.277Z,25.70
2022-08-02T19:49:16.432Z,25.60
2022-08-02T19:51:07.782Z,25.50
2022-08-02T19:56:01.435Z,25.40
2022-08-02T19:57:34.472Z,25.40
2022-08-02T19:59:38.256Z,25.30
2022-08-02T20:01:48.467Z,25.10
2022-08-02T20:03:52.375Z,24.90
2022-08-02T20:05:55.033Z,24.90
2022-08-02T20:07:58.640Z,24.80
2022-08-02T20:10:02.172Z,24.60
2022-08-02T20:14:26.952Z,24.50
2022-08-02T20:18:46.748Z,24.40
2022-08-02T20:23:32.819Z,24.30
2022-08-02T20:25:19.968Z,24.20
2022-08-02T20:27:28.482Z,24.10
2022-08-02T20:29:45.114Z,24.10
2022-08-02T20:31:35.646Z,24.00
2022-08-02T20:33:56.034Z,24.00
2022-08-02T20:35:47.222Z,23.90
2022-08-02T20:37:59.155Z,23.90
2022-08-02T20:39:56.913Z,23.90
2022-08-02T20:42:06.139Z,23.90
2022-08-02T20:44:06.354Z,23.70
2022-08-02T20:46:11.792Z,23.40
2022-08-02T20:48:15.535Z,23.10
2022-08-02T20:50:37.349Z,22.80
2022-08-02T20:54:57.257Z,22.40
2022-08-02T20:57:00.995Z,22.40
2022-08-02T20:59:16.027Z,22.40
2022-08-02T21:01:11.773Z,22.40
2022-08-02T21:03:16.246Z,22.40
2022-08-02T21:05:44.022Z,22.40
2022-08-02T21:07:27.239Z,22.40
2022-08-02T21:09:52.605Z,22.40
2022-08-02T21:11:38.025Z,22.40
2022-08-02T21:13:47.062Z,22.40
2022-08-02T21:15:47.996Z,22.30
2022-08-02T21:17:52.524Z,22.20
2022-08-02T21:19:57.200Z,22.20
2022-08-02T21:22:02.001Z,22.10
2022-08-02T21:26:25.918Z,22.20
2022-08-02T21:28:35.015Z,22.10
2022-08-02T21:30:35.245Z,22.10
2022-08-02T21:32:38.928Z,22.10
2022-08-02T21:34:42.855Z,22.10
2022-08-02T21:36:46.509Z,22.10
2022-08-02T21:38:50.116Z,22.10
2022-08-02T21:40:55.337Z,22.00
2022-08-02T21:42:59.478Z,22.00
2022-08-02T21:47:25.040Z,22.00
2022-08-02T21:50:09.712Z,21.90
2022-08-02T21:51:36.074Z,21.90
2022-08-02T21:53:41.967Z,21.90
2022-08-02T21:57:51.564Z,21.70
2022-08-02T21:59:55.685Z,21.80
2022-08-02T22:02:00.685Z,21.70
2022-08-02T22:04:04.981Z,21.70
2022-08-02T22:06:10.538Z,21.60
2022-08-02T22:08:14.232Z,21.50
2022-08-02T22:10:19.569Z,21.40
2022-08-02T22:12:26.499Z,21.30
2022-08-02T22:14:29.128Z,21.20
2022-08-02T22:16:35.282Z,21.20
2022-08-02T22:18:40.358Z,21.20
2022-08-02T22:20:45.475Z,21.20
2022-08-02T22:24:55.735Z,21.00
2022-08-02T22:27:00.249Z,21.00
2022-08-02T22:29:05.807Z,21.00
2022-08-02T22:31:10.707Z,21.00
2022-08-02T22:33:34.244Z,20.90
2022-08-02T22:38:16.482Z,20.70
2022-08-02T22:40:08.540Z,20.70
2022-08-02T22:42:07.836Z,20.70
2022-08-02T22:44:11.577Z,20.70
2022-08-02T22:46:16.696Z,20.70
2022-08-02T22:48:20.863Z,20.60
2022-08-02T22:50:27.038Z,20.60
2022-08-02T22:52:31.881Z,20.60
2022-08-02T22:54:35.576Z,20.60
2022-08-02T22:58:49.135Z,29.80
2022-08-02T22:58:59.211Z,28.20
2022-08-02T22:59:03.803Z,21.80
2022-08-02T22:59:12.564Z,21.10
2022-08-02T23:01:04.673Z,20.60
2022-08-02T23:03:08.751Z,20.60
2022-08-02T23:05:12.332Z,20.60
2022-08-02T23:07:16.444Z,20.60
2022-08-02T23:09:21.472Z,20.60
2022-08-02T23:11:26.186Z,20.60
2022-08-02T23:16:01.976Z,20.40
2022-08-02T23:18:23.648Z,20.40
2022-08-02T23:22:49.320Z,20.30
2022-08-02T23:24:54.863Z,20.40
2022-08-02T23:27:02.228Z,20.40
2022-08-02T23:29:19.895Z,20.30
2022-08-02T23:34:03.803Z,20.20
2022-08-02T23:35:52.826Z,20.10
2022-08-02T23:37:59.349Z,20.10
2022-08-02T23:40:02.534Z,20.00
2022-08-02T23:42:06.711Z,20.00
2022-08-02T23:44:14.121Z,20.00
2022-08-02T23:46:15.832Z,19.90
2022-08-02T23:48:19.475Z,19.80
2022-08-02T23:50:23.531Z,19.80
2022-08-02T23:54:46.796Z,19.80
2022-08-02T23:56:51.452Z,19.80
2022-08-02T23:58:55.071Z,19.80
